Time;durP1;ratioP1;P1;durP2;ratioP2;P2;SDS_P1;SDS_P2;PMS_P1;PMS_P2;Temp;Humidity;BMP_temperature;BMP_pressure;BME280_temperature;BME280_humidity;BME280_pressure;Samples;Min_cycle;Max_cycle;Signal;HPM_P1;HPM_P2
2020/12/25 00:00:50;;;;;;;28.15;3.38;;;;;;;;;;4996032;28;20053;-46
2020/12/25 00:03:17;;;;;;;19.30;3.60;;;;;;;;;;4996113;28;20478;-48
2020/12/25 00:05:47;;;;;;;10.98;2.90;;;;;;;;;;4995827;28;20097;-49
2020/12/25 00:08:14;;;;;;;16.70;3.17;;;;;;;;;;4996041;28;20080;-47
2020/12/25 00:10:44;;;;;;;17.10;3.45;;;;;;;;;;4996000;28;20045;-49
2020/12/25 00:13:10;;;;;;;13.23;3.03;;;;;;;;;;4995767;28;20494;-50
2020/12/25 00:15:37;;;;;;;21.27;3.78;;;;;;;;;;4995855;28;20026;-51
2020/12/25 00:18:04;;;;;;;14.00;2.83;;;;;;;;;;4995806;28;20152;-49
2020/12/25 00:20:31;;;;;;;12.32;2.95;;;;;;;;;;4995896;28;20034;-49
2020/12/25 00:22:58;;;;;;;19.35;3.88;;;;;;;;;;4995632;28;20026;-48
2020/12/25 00:25:25;;;;;;;19.20;3.92;;;;;;;;;;4995853;28;20030;-49
2020/12/25 00:27:52;;;;;;;23.63;3.83;;;;;;;;;;4995457;28;20037;-52
2020/12/25 00:30:19;;;;;;;22.92;3.70;;;;;;;;;;4995490;28;20428;-49
2020/12/25 00:32:46;;;;;;;32.30;5.38;;;;;;;;;;4995682;28;20023;-51
2020/12/25 00:35:13;;;;;;;23.08;4.13;;;;;;;;;;4995508;28;20443;-49
2020/12/25 00:37:40;;;;;;;32.38;4.93;;;;;;;;;;4994666;28;20049;-50
2020/12/25 00:40:07;;;;;;;20.17;3.72;;;;;;;;;;4994915;28;20084;-51
2020/12/25 00:42:34;;;;;;;26.35;3.92;;;;;;;;;;4995276;28;20109;-49
2020/12/25 00:45:01;;;;;;;34.20;4.95;;;;;;;;;;4995235;28;20069;-47
2020/12/25 00:47:28;;;;;;;23.58;5.38;;;;;;;;;;4995052;28;20498;-49
2020/12/25 00:49:55;;;;;;;28.05;5.20;;;;;;;;;;4995154;28;20042;-47
2020/12/25 00:52:24;;;;;;;22.15;4.82;;;;;;;;;;4995215;28;20090;-56
2020/12/25 00:54:54;;;;;;;24.73;4.63;;;;;;;;;;4995175;28;20030;-52
2020/12/25 00:57:21;;;;;;;34.35;5.10;;;;;;;;;;4994941;28;20029;-49
2020/12/25 00:59:48;;;;;;;31.60;5.63;;;;;;;;;;4995011;28;20509;-49
2020/12/25 01:02:15;;;;;;;51.28;7.70;;;;;;;;;;4977475;28;20458;-47
2020/12/25 01:04:41;;;;;;;40.13;7.93;;;;;;;;;;4995200;28;20029;-53
2020/12/25 01:07:09;;;;;;;30.42;6.97;;;;;;;;;;4994828;28;20030;-56
2020/12/25 01:09:36;;;;;;;34.83;6.72;;;;;;;;;;4994765;28;20074;-55
2020/12/25 01:12:04;;;;;;;31.08;6.82;;;;;;;;;;4994814;28;20034;-54
2020/12/25 01:14:31;;;;;;;40.70;6.25;;;;;;;;;;4994885;28;20023;-52
2020/12/25 01:16:59;;;;;;;39.47;7.03;;;;;;;;;;4994619;28;20430;-55
2020/12/25 01:19:26;;;;;;;26.00;6.75;;;;;;;;;;4994815;28;20030;-52
2020/12/25 01:21:57;;;;;;;36.58;7.10;;;;;;;;;;4994718;28;20041;-55
2020/12/25 01:24:27;;;;;;;24.77;6.22;;;;;;;;;;4994605;28;20105;-54
2020/12/25 01:26:54;;;;;;;35.28;8.30;;;;;;;;;;4994668;28;20026;-55
2020/12/25 01:29:21;;;;;;;45.22;8.30;;;;;;;;;;4977080;28;20037;-55
2020/12/25 01:31:48;;;;;;;36.58;7.05;;;;;;;;;;4994520;28;20030;-54
2020/12/25 01:34:15;;;;;;;33.35;7.68;;;;;;;;;;4994409;28;20109;-55
2020/12/25 01:36:42;;;;;;;45.03;7.55;;;;;;;;;;4994392;28;20034;-54
2020/12/25 01:39:09;;;;;;;47.60;9.32;;;;;;;;;;4994281;28;20109;-51
2020/12/25 01:41:36;;;;;;;31.38;8.18;;;;;;;;;;4994203;28;20026;-49
2020/12/25 01:44:03;;;;;;;31.95;8.70;;;;;;;;;;4994238;28;20027;-49
2020/12/25 01:46:30;;;;;;;37.92;7.38;;;;;;;;;;4994166;28;20022;-49
2020/12/25 01:48:58;;;;;;;33.47;8.52;;;;;;;;;;4993767;28;20042;-45
2020/12/25 01:51:25;;;;;;;37.00;8.13;;;;;;;;;;4994106;28;20394;-48
2020/12/25 01:53:52;;;;;;;42.10;9.13;;;;;;;;;;4994087;28;20027;-45
2020/12/25 01:56:19;;;;;;;43.38;8.93;;;;;;;;;;4994046;28;20030;-55
2020/12/25 01:58:46;;;;;;;34.92;9.38;;;;;;;;;;4994127;28;20099;-55
2020/12/25 02:01:13;;;;;;;39.45;8.60;;;;;;;;;;4994041;28;20026;-55
2020/12/25 02:03:40;;;;;;;38.13;9.05;;;;;;;;;;4993885;28;20025;-56
2020/12/25 02:06:07;;;;;;;42.08;9.68;;;;;;;;;;4993929;28;20023;-56
2020/12/25 02:08:34;;;;;;;37.60;8.82;;;;;;;;;;4993880;28;20159;-55
2020/12/25 02:11:01;;;;;;;38.10;9.63;;;;;;;;;;4993624;28;20081;-56
2020/12/25 02:13:30;;;;;;;41.25;9.50;;;;;;;;;;4993545;28;20390;-56
2020/12/25 02:15:57;;;;;;;29.98;8.50;;;;;;;;;;4993459;28;20019;-55
2020/12/25 02:18:32;;;;;;;39.22;9.35;;;;;;;;;;4993529;28;20485;-54
2020/12/25 02:21:03;;;;;;;35.58;9.52;;;;;;;;;;4993731;28;20038;-55
2020/12/25 02:23:30;;;;;;;36.25;9.05;;;;;;;;;;4993365;28;20041;-54
2020/12/25 02:25:57;;;;;;;41.25;10.15;;;;;;;;;;4975823;28;20029;-56
2020/12/25 02:28:24;;;;;;;39.30;8.63;;;;;;;;;;4993402;28;20029;-55
2020/12/25 02:30:51;;;;;;;43.85;9.43;;;;;;;;;;4993386;28;20045;-51
2020/12/25 02:33:18;;;;;;;35.47;9.35;;;;;;;;;;4993258;28;20398;-55
2020/12/25 02:35:45;;;;;;;29.35;8.27;;;;;;;;;;4993778;28;20126;-56
2020/12/25 02:38:12;;;;;;;35.53;8.85;;;;;;;;;;4993160;28;20386;-56
2020/12/25 02:40:39;;;;;;;27.08;9.10;;;;;;;;;;4993120;28;20044;-55
2020/12/25 02:43:06;;;;;;;29.85;8.90;;;;;;;;;;4993026;28;20076;-55
2020/12/25 02:45:33;;;;;;;37.30;9.60;;;;;;;;;;4993284;28;20022;-56
2020/12/25 02:48:00;;;;;;;34.30;9.88;;;;;;;;;;4992829;28;20050;-55
2020/12/25 02:50:26;;;;;;;35.78;10.13;;;;;;;;;;4992863;28;20044;-51
2020/12/25 02:52:53;;;;;;;34.35;9.00;;;;;;;;;;4993118;28;20038;-55
2020/12/25 02:55:20;;;;;;;29.17;9.55;;;;;;;;;;4992964;28;20026;-56
2020/12/25 02:57:47;;;;;;;31.15;9.07;;;;;;;;;;4992897;28;20093;-55
2020/12/25 03:00:14;;;;;;;24.60;8.10;;;;;;;;;;4993008;28;20027;-52
2020/12/25 03:02:41;;;;;;;40.10;9.85;;;;;;;;;;4992310;28;20556;-55
2020/12/25 03:05:08;;;;;;;31.02;9.85;;;;;;;;;;4992830;28;20022;-54
2020/12/25 03:07:35;;;;;;;29.20;9.07;;;;;;;;;;4992666;28;20014;-55
2020/12/25 03:10:02;;;;;;;31.20;8.88;;;;;;;;;;4992596;28;20042;-53
2020/12/25 03:12:29;;;;;;;25.13;9.23;;;;;;;;;;4992718;28;20025;-55
2020/12/25 03:14:56;;;;;;;28.63;9.07;;;;;;;;;;4992924;28;20026;-54
2020/12/25 03:17:23;;;;;;;31.15;9.68;;;;;;;;;;4992674;28;20046;-55
2020/12/25 03:19:50;;;;;;;29.88;9.15;;;;;;;;;;4992577;28;20470;-55
2020/12/25 03:22:17;;;;;;;37.65;9.65;;;;;;;;;;4975140;28;20113;-55
2020/12/25 03:24:44;;;;;;;34.30;10.10;;;;;;;;;;4992592;28;20026;-55
2020/12/25 03:27:11;;;;;;;26.50;8.95;;;;;;;;;;4992816;28;20019;-55
2020/12/25 03:29:38;;;;;;;29.35;9.95;;;;;;;;;;4992594;28;20034;-52
2020/12/25 03:32:05;;;;;;;25.80;9.05;;;;;;;;;;4992460;28;20031;-48
2020/12/25 03:34:32;;;;;;;30.58;8.63;;;;;;;;;;4975169;28;20046;-47
2020/12/25 03:36:59;;;;;;;23.40;8.68;;;;;;;;;;4992451;28;20018;-45
2020/12/25 03:39:26;;;;;;;28.92;9.80;;;;;;;;;;4991103;28;20064;-45
2020/12/25 03:41:53;;;;;;;24.40;9.25;;;;;;;;;;4992436;28;20027;-45
2020/12/25 03:44:20;;;;;;;29.00;9.70;;;;;;;;;;4992576;28;20023;-45
2020/12/25 03:46:47;;;;;;;27.05;9.05;;;;;;;;;;4992389;28;20034;-48
2020/12/25 03:49:14;;;;;;;28.95;9.05;;;;;;;;;;4992140;28;20046;-46
2020/12/25 03:51:41;;;;;;;25.08;9.15;;;;;;;;;;4992442;28;20031;-50
2020/12/25 03:54:08;;;;;;;30.35;8.77;;;;;;;;;;4992449;28;20022;-46
2020/12/25 03:56:35;;;;;;;34.08;9.15;;;;;;;;;;4992397;28;20382;-48
2020/12/25 03:59:02;;;;;;;20.30;8.65;;;;;;;;;;4992446;28;20506;-47
2020/12/25 04:01:29;;;;;;;27.33;9.93;;;;;;;;;;4991115;28;20019;-50
2020/12/25 04:03:56;;;;;;;20.83;8.13;;;;;;;;;;4974804;28;20391;-53
2020/12/25 04:06:23;;;;;;;23.05;8.90;;;;;;;;;;4992886;28;20105;-48
2020/12/25 04:08:50;;;;;;;31.02;8.70;;;;;;;;;;4992093;28;20110;-48
2020/12/25 04:11:17;;;;;;;27.38;9.45;;;;;;;;;;4992238;28;20033;-46
2020/12/25 04:13:44;;;;;;;27.10;8.10;;;;;;;;;;4994709;28;20049;-50
2020/12/25 04:16:11;;;;;;;28.13;8.60;;;;;;;;;;4995976;28;20034;-44
2020/12/25 04:18:38;;;;;;;23.88;7.93;;;;;;;;;;4995863;28;20023;-51
2020/12/25 04:21:05;;;;;;;22.35;8.13;;;;;;;;;;4995657;28;20114;-55
2020/12/25 04:23:32;;;;;;;23.75;8.27;;;;;;;;;;4995882;28;20030;-52
2020/12/25 04:25:59;;;;;;;32.88;8.75;;;;;;;;;;4995734;28;20053;-43
2020/12/25 04:28:26;;;;;;;29.38;8.75;;;;;;;;;;4995459;28;20507;-46
2020/12/25 04:30:53;;;;;;;23.55;8.63;;;;;;;;;;4995717;28;20042;-47
2020/12/25 04:33:20;;;;;;;27.23;8.15;;;;;;;;;;4995513;28;20019;-48
2020/12/25 04:35:47;;;;;;;29.20;8.63;;;;;;;;;;4995420;28;20382;-49
2020/12/25 04:38:14;;;;;;;28.30;8.48;;;;;;;;;;4995622;28;20030;-49
2020/12/25 04:40:43;;;;;;;25.52;8.82;;;;;;;;;;4995259;28;20022;-47
2020/12/25 04:43:10;;;;;;;27.92;9.27;;;;;;;;;;4995370;28;20489;-47
2020/12/25 04:45:37;;;;;;;27.48;8.80;;;;;;;;;;4995393;28;20482;-46
2020/12/25 04:48:05;;;;;;;32.22;10.02;;;;;;;;;;4995100;28;20050;-51
2020/12/25 04:50:32;;;;;;;30.63;8.85;;;;;;;;;;4995060;28;20040;-54
2020/12/25 04:53:00;;;;;;;25.80;9.43;;;;;;;;;;4995341;28;20541;-47
2020/12/25 04:55:27;;;;;;;27.33;8.65;;;;;;;;;;4995182;28;20114;-46
2020/12/25 04:57:54;;;;;;;25.75;7.78;;;;;;;;;;4977506;28;20055;-52
2020/12/25 05:00:24;;;;;;;24.67;7.78;;;;;;;;;;4995202;28;20026;-51
2020/12/25 05:02:52;;;;;;;25.75;7.28;;;;;;;;;;4994986;28;20022;-51
2020/12/25 05:05:20;;;;;;;19.40;7.60;;;;;;;;;;4994934;28;20022;-48
2020/12/25 05:07:49;;;;;;;23.27;8.13;;;;;;;;;;4995061;28;20045;-55
2020/12/25 05:10:16;;;;;;;30.90;8.68;;;;;;;;;;4994949;28;20030;-55
2020/12/25 05:12:46;;;;;;;21.10;7.63;;;;;;;;;;4994800;28;20542;-56
2020/12/25 05:15:14;;;;;;;24.92;8.60;;;;;;;;;;4994798;28;20030;-55
2020/12/25 05:17:42;;;;;;;22.30;8.10;;;;;;;;;;4994598;28;20486;-55
2020/12/25 05:20:09;;;;;;;25.75;7.40;;;;;;;;;;4994999;28;20033;-56
2020/12/25 05:22:36;;;;;;;32.45;7.53;;;;;;;;;;4994606;28;20019;-54
2020/12/25 05:25:05;;;;;;;25.13;8.02;;;;;;;;;;4994320;28;20022;-55
2020/12/25 05:27:32;;;;;;;26.40;8.50;;;;;;;;;;4994525;28;20105;-56
2020/12/25 05:30:00;;;;;;;31.33;8.90;;;;;;;;;;4994415;28;20042;-56
2020/12/25 05:32:31;;;;;;;33.92;8.98;;;;;;;;;;4994364;28;20018;-53
2020/12/25 05:34:59;;;;;;;33.83;8.95;;;;;;;;;;4976910;28;20386;-53
2020/12/25 05:37:38;;;;;;;28.50;8.43;;;;;;;;;;4994301;28;20030;-53
2020/12/25 05:40:09;;;;;;;29.70;8.43;;;;;;;;;;4994243;28;20149;-54
2020/12/25 05:42:46;;;;;;;23.52;8.48;;;;;;;;;;4994404;28;20019;-52
2020/12/25 05:45:16;;;;;;;30.70;7.70;;;;;;;;;;4994333;28;20141;-55
2020/12/25 05:47:43;;;;;;;27.27;8.52;;;;;;;;;;4993909;28;20499;-55
2020/12/25 05:50:10;;;;;;;29.90;9.23;;;;;;;;;;4994296;28;20501;-56
2020/12/25 05:52:39;;;;;;;24.65;8.25;;;;;;;;;;4994137;28;20026;-56
2020/12/25 05:55:06;;;;;;;28.30;8.48;;;;;;;;;;4993967;28;20041;-56
2020/12/25 05:57:34;;;;;;;21.20;7.60;;;;;;;;;;4993856;28;20025;-55
2020/12/25 06:00:04;;;;;;;29.73;7.80;;;;;;;;;;4994010;28;20022;-55
2020/12/25 06:02:33;;;;;;;38.63;7.95;;;;;;;;;;4993822;28;20088;-55
2020/12/25 06:05:00;;;;;;;37.40;8.25;;;;;;;;;;4993894;28;20033;-55
2020/12/25 06:07:29;;;;;;;29.98;8.90;;;;;;;;;;4976389;28;20023;-56
2020/12/25 06:09:59;;;;;;;37.63;8.52;;;;;;;;;;4993801;28;20382;-55
2020/12/25 06:12:42;;;;;;;30.30;8.70;;;;;;;;;;4993489;28;20089;-54
2020/12/25 06:15:11;;;;;;;28.00;8.40;;;;;;;;;;4993633;28;20037;-54
2020/12/25 06:17:40;;;;;;;22.55;7.47;;;;;;;;;;4993586;28;20093;-55
2020/12/25 06:20:08;;;;;;;26.45;7.78;;;;;;;;;;4993647;28;20080;-54
2020/12/25 06:22:37;;;;;;;27.58;7.70;;;;;;;;;;4993362;28;20018;-56
2020/12/25 06:25:15;;;;;;;31.00;7.70;;;;;;;;;;4993368;28;20042;-56
2020/12/25 06:27:51;;;;;;;22.48;7.00;;;;;;;;;;4993378;28;20018;-55
2020/12/25 06:30:25;;;;;;;23.25;7.28;;;;;;;;;;4993490;28;20125;-56
2020/12/25 06:32:56;;;;;;;27.23;8.02;;;;;;;;;;4993472;28;20482;-56
2020/12/25 06:35:34;;;;;;;23.85;8.20;;;;;;;;;;4993070;28;20030;-52
2020/12/25 06:38:05;;;;;;;28.45;7.88;;;;;;;;;;4992952;28;20068;-56
2020/12/25 06:40:32;;;;;;;25.92;8.07;;;;;;;;;;4993279;28;20110;-55
2020/12/25 06:42:59;;;;;;;24.17;7.13;;;;;;;;;;4993297;28;20065;-56
2020/12/25 06:45:31;;;;;;;24.67;7.70;;;;;;;;;;4975666;28;20486;-55
2020/12/25 06:48:11;;;;;;;29.85;8.63;;;;;;;;;;4992903;28;20130;-55
2020/12/25 06:50:42;;;;;;;31.58;8.25;;;;;;;;;;4992976;28;20066;-55
2020/12/25 06:53:09;;;;;;;23.50;8.20;;;;;;;;;;4993084;28;20134;-55
2020/12/25 06:55:43;;;;;;;30.13;7.93;;;;;;;;;;4992991;28;20054;-55
2020/12/25 06:58:11;;;;;;;26.13;7.07;;;;;;;;;;4992946;28;20015;-55
2020/12/25 07:00:41;;;;;;;23.88;7.00;;;;;;;;;;4975341;28;20030;-50
2020/12/25 07:03:12;;;;;;;22.67;7.95;;;;;;;;;;4993016;28;20030;-55
2020/12/25 07:05:48;;;;;;;23.88;7.55;;;;;;;;;;4992867;28;20030;-56
2020/12/25 07:08:26;;;;;;;28.42;7.30;;;;;;;;;;4992838;28;20482;-55
2020/12/25 07:10:59;;;;;;;27.38;7.85;;;;;;;;;;4992801;28;20037;-56
2020/12/25 07:13:27;;;;;;;30.95;7.47;;;;;;;;;;4992940;28;20099;-56
2020/12/25 07:15:54;;;;;;;25.73;7.03;;;;;;;;;;4992881;28;20031;-56
2020/12/25 07:18:21;;;;;;;21.60;7.18;;;;;;;;;;4992628;28;20414;-56
2020/12/25 07:20:47;;;;;;;22.60;7.57;;;;;;;;;;4992693;28;20134;-50
2020/12/25 07:23:16;;;;;;;27.33;7.47;;;;;;;;;;4992791;28;20026;-54
2020/12/25 07:25:43;;;;;;;21.67;7.38;;;;;;;;;;4992572;28;20030;-53
2020/12/25 07:28:10;;;;;;;26.83;6.80;;;;;;;;;;4992653;28;20045;-55
2020/12/25 07:30:37;;;;;;;27.83;7.85;;;;;;;;;;4992761;28;20503;-55
2020/12/25 07:33:05;;;;;;;22.88;7.10;;;;;;;;;;4992579;28;20037;-47
2020/12/25 07:35:32;;;;;;;21.58;6.93;;;;;;;;;;4992513;28;20050;-45
2020/12/25 07:38:03;;;;;;;19.73;6.32;;;;;;;;;;4992699;28;20025;-45
2020/12/25 07:40:30;;;;;;;28.50;6.20;;;;;;;;;;4992210;28;20084;-46
2020/12/25 07:42:58;;;;;;;22.23;6.47;;;;;;;;;;4992907;28;20698;-46
2020/12/25 07:45:24;;;;;;;20.83;6.97;;;;;;;;;;4992610;28;20029;-49
2020/12/25 07:47:55;;;;;;;22.38;6.65;;;;;;;;;;4976039;28;20046;-45
2020/12/25 07:50:21;;;;;;;22.55;6.22;;;;;;;;;;4996258;28;20038;-47
2020/12/25 07:52:49;;;;;;;20.02;6.65;;;;;;;;;;4996449;28;20104;-46
2020/12/25 07:55:19;;;;;;;18.75;6.63;;;;;;;;;;4996160;28;20105;-48
2020/12/25 07:57:49;;;;;;;21.35;6.50;;;;;;;;;;4996163;28;20027;-44
2020/12/25 08:00:16;;;;;;;17.90;6.45;;;;;;;;;;4996186;28;20026;-46
2020/12/25 08:02:43;;;;;;;25.85;7.50;;;;;;;;;;4996290;28;20049;-49
2020/12/25 08:05:10;;;;;;;24.52;6.97;;;;;;;;;;4996103;28;20019;-47
2020/12/25 08:07:42;;;;;;;19.52;6.63;;;;;;;;;;4996019;28;20022;-48
2020/12/25 08:10:13;;;;;;;21.58;6.70;;;;;;;;;;4996051;28;20105;-46
2020/12/25 08:12:49;;;;;;;23.25;7.13;;;;;;;;;;4995985;28;20022;-48
2020/12/25 08:15:16;;;;;;;19.40;6.20;;;;;;;;;;4995922;28;20072;-46
2020/12/25 08:17:45;;;;;;;20.98;6.88;;;;;;;;;;4996092;28;20034;-46
2020/12/25 08:20:11;;;;;;;22.52;6.50;;;;;;;;;;4995943;28;20368;-50
2020/12/25 08:22:39;;;;;;;20.25;6.20;;;;;;;;;;4995727;28;20025;-55
2020/12/25 08:25:06;;;;;;;16.10;6.90;;;;;;;;;;4995724;28;20037;-56
2020/12/25 08:27:33;;;;;;;19.52;6.05;;;;;;;;;;4996027;28;20042;-56
2020/12/25 08:30:01;;;;;;;21.20;6.47;;;;;;;;;;4995560;28;20031;-53
2020/12/25 08:32:30;;;;;;;15.98;5.72;;;;;;;;;;4995561;28;20026;-56
2020/12/25 08:35:10;;;;;;;15.75;5.88;;;;;;;;;;4995624;28;20085;-56
2020/12/25 08:37:37;;;;;;;20.60;6.40;;;;;;;;;;4995554;28;20034;-54
2020/12/25 08:40:16;;;;;;;18.58;6.32;;;;;;;;;;4977910;28;20390;-55
2020/12/25 08:42:43;;;;;;;20.75;6.93;;;;;;;;;;4995477;28;20603;-49
2020/12/25 08:45:11;;;;;;;18.65;5.93;;;;;;;;;;4995350;28;20037;-56
2020/12/25 08:47:38;;;;;;;15.48;5.80;;;;;;;;;;4995070;28;20111;-55
2020/12/25 08:50:06;;;;;;;18.23;6.22;;;;;;;;;;4977636;28;20383;-51
2020/12/25 08:52:33;;;;;;;25.05;6.43;;;;;;;;;;4995119;28;20033;-56
2020/12/25 08:55:01;;;;;;;16.27;5.45;;;;;;;;;;4995394;28;20030;-56
2020/12/25 08:57:31;;;;;;;20.45;6.43;;;;;;;;;;4995052;28;20382;-55
2020/12/25 09:00:07;;;;;;;18.75;6.03;;;;;;;;;;4994132;28;20470;-56
2020/12/25 09:02:34;;;;;;;20.10;5.82;;;;;;;;;;4995068;28;20577;-56
2020/12/25 09:05:01;;;;;;;25.50;6.03;;;;;;;;;;4995096;28;20027;-56
2020/12/25 09:07:28;;;;;;;18.85;6.18;;;;;;;;;;4995021;28;20029;-55
2020/12/25 09:09:55;;;;;;;18.23;5.88;;;;;;;;;;4994778;28;20045;-55
2020/12/25 09:12:22;;;;;;;15.13;5.28;;;;;;;;;;4995034;28;20145;-55
2020/12/25 09:14:49;;;;;;;17.60;5.45;;;;;;;;;;4994797;28;20113;-56
2020/12/25 09:17:16;;;;;;;16.45;5.72;;;;;;;;;;4994593;28;20023;-54
2020/12/25 09:19:43;;;;;;;16.55;5.82;;;;;;;;;;4977387;28;20050;-55
2020/12/25 09:22:10;;;;;;;14.80;5.15;;;;;;;;;;4994931;28;20128;-56
2020/12/25 09:24:37;;;;;;;17.77;5.75;;;;;;;;;;4994660;28;20018;-56
2020/12/25 09:27:04;;;;;;;18.25;5.80;;;;;;;;;;4994778;28;20029;-56
2020/12/25 09:29:31;;;;;;;21.58;5.95;;;;;;;;;;4994492;28;20038;-55
2020/12/25 09:31:58;;;;;;;23.88;6.30;;;;;;;;;;4994406;28;20019;-56
2020/12/25 09:34:25;;;;;;;22.20;6.35;;;;;;;;;;4994714;28;20049;-52
2020/12/25 09:36:52;;;;;;;15.45;5.35;;;;;;;;;;4994319;28;20018;-55
2020/12/25 09:39:19;;;;;;;22.10;5.68;;;;;;;;;;4994298;28;20109;-55
2020/12/25 09:41:49;;;;;;;19.20;5.18;;;;;;;;;;4994710;28;20025;-55
2020/12/25 09:44:16;;;;;;;17.73;5.57;;;;;;;;;;4994208;28;20027;-54
2020/12/25 09:46:43;;;;;;;13.82;5.43;;;;;;;;;;4994111;28;20026;-56
2020/12/25 09:49:10;;;;;;;16.73;5.25;;;;;;;;;;4976630;28;20051;-56
2020/12/25 09:51:37;;;;;;;18.23;5.78;;;;;;;;;;4994007;28;20042;-55
2020/12/25 09:54:04;;;;;;;15.80;5.63;;;;;;;;;;4993969;28;20034;-56
2020/12/25 09:56:31;;;;;;;14.38;5.05;;;;;;;;;;4994235;28;20026;-51
2020/12/25 09:58:58;;;;;;;15.65;5.57;;;;;;;;;;4994082;28;20386;-55
2020/12/25 10:01:25;;;;;;;16.77;5.03;;;;;;;;;;4993867;28;20037;-56
2020/12/25 10:03:52;;;;;;;12.75;5.22;;;;;;;;;;4994032;28;20030;-55
2020/12/25 10:06:22;;;;;;;18.40;5.78;;;;;;;;;;4993691;28;20037;-55
2020/12/25 10:08:49;;;;;;;15.40;5.22;;;;;;;;;;4993821;28;20383;-55
2020/12/25 10:11:19;;;;;;;17.38;5.15;;;;;;;;;;4993587;28;20038;-54
2020/12/25 10:13:46;;;;;;;15.73;5.32;;;;;;;;;;4994095;28;20054;-54
2020/12/25 10:16:13;;;;;;;15.77;5.32;;;;;;;;;;4993644;28;20486;-55
2020/12/25 10:18:40;;;;;;;13.82;5.07;;;;;;;;;;4993664;28;20066;-56
2020/12/25 10:21:08;;;;;;;14.80;4.80;;;;;;;;;;4993771;28;20097;-55
2020/12/25 10:23:35;;;;;;;15.52;5.80;;;;;;;;;;4993474;28;20545;-54
2020/12/25 10:26:02;;;;;;;13.07;5.32;;;;;;;;;;4993569;28;20546;-56
2020/12/25 10:28:29;;;;;;;11.55;4.68;;;;;;;;;;4993710;28;20088;-55
2020/12/25 10:30:56;;;;;;;13.90;5.78;;;;;;;;;;4993202;28;20041;-55
2020/12/25 10:33:23;;;;;;;15.85;5.25;;;;;;;;;;4993347;28;20081;-56
2020/12/25 10:35:49;;;;;;;12.80;4.63;;;;;;;;;;4993409;28;20086;-56
2020/12/25 10:38:16;;;;;;;10.95;4.40;;;;;;;;;;4993154;28;20081;-55
2020/12/25 10:40:43;;;;;;;12.32;4.93;;;;;;;;;;4993175;28;20030;-54
2020/12/25 10:43:10;;;;;;;9.80;4.25;;;;;;;;;;4993288;28;20026;-56
2020/12/25 10:45:39;;;;;;;11.82;5.10;;;;;;;;;;4993111;28;20026;-56
2020/12/25 10:48:06;;;;;;;15.40;5.15;;;;;;;;;;4992971;28;20042;-52
2020/12/25 10:50:33;;;;;;;12.82;5.00;;;;;;;;;;4993206;28;20494;-55
2020/12/25 10:53:00;;;;;;;12.57;3.83;;;;;;;;;;4993119;28;20379;-54
2020/12/25 10:55:27;;;;;;;12.30;5.35;;;;;;;;;;4993009;28;20022;-55
2020/12/25 10:57:54;;;;;;;15.35;5.03;;;;;;;;;;4993067;28;20101;-55
2020/12/25 11:00:21;;;;;;;13.20;4.70;;;;;;;;;;4992789;28;20026;-54
2020/12/25 11:02:48;;;;;;;14.65;5.40;;;;;;;;;;4992917;28;20036;-51
2020/12/25 11:05:16;;;;;;;11.68;4.22;;;;;;;;;;4992921;28;20026;-55
2020/12/25 11:07:43;;;;;;;12.23;4.78;;;;;;;;;;4992798;28;20027;-53
2020/12/25 11:10:10;;;;;;;15.38;4.70;;;;;;;;;;4992763;28;20085;-55
2020/12/25 11:12:37;;;;;;;11.80;4.13;;;;;;;;;;4991604;28;20490;-56
2020/12/25 11:15:04;;;;;;;9.75;4.13;;;;;;;;;;4992643;28;20478;-55
2020/12/25 11:17:31;;;;;;;15.90;4.53;;;;;;;;;;4991553;28;20019;-56
2020/12/25 11:19:58;;;;;;;9.32;4.13;;;;;;;;;;4992901;28;20030;-54
2020/12/25 11:22:25;;;;;;;10.88;4.55;;;;;;;;;;4991001;28;20112;-55
2020/12/25 11:24:52;;;;;;;11.57;4.20;;;;;;;;;;4992673;28;20084;-55
2020/12/25 11:27:19;;;;;;;13.27;4.35;;;;;;;;;;4992639;28;20390;-47
2020/12/25 11:29:46;;;;;;;9.98;4.13;;;;;;;;;;4992605;28;20038;-50
2020/12/25 11:32:13;;;;;;;11.68;4.53;;;;;;;;;;4992618;28;20022;-52
2020/12/25 11:34:40;;;;;;;11.23;3.92;;;;;;;;;;4992853;28;20030;-49
2020/12/25 11:37:07;;;;;;;11.35;4.68;;;;;;;;;;4992532;28;20427;-49
2020/12/25 11:39:34;;;;;;;12.52;4.47;;;;;;;;;;4992461;28;20042;-49
2020/12/25 11:42:01;;;;;;;11.27;4.40;;;;;;;;;;4992543;28;20046;-51
2020/12/25 11:44:28;;;;;;;13.43;4.18;;;;;;;;;;4992482;28;20029;-45
2020/12/25 11:47:01;;;;;;;10.00;4.32;;;;;;;;;;4992526;28;20022;-49
2020/12/25 11:49:28;;;;;;;9.65;3.92;;;;;;;;;;4992123;28;20054;-55
2020/12/25 11:51:59;;;;;;;8.32;3.45;;;;;;;;;;4975111;28;20030;-47
2020/12/25 11:54:25;;;;;;;9.57;4.00;;;;;;;;;;4992634;28;20434;-45
2020/12/25 11:56:53;;;;;;;9.82;3.70;;;;;;;;;;4974885;28;20030;-48
2020/12/25 11:59:21;;;;;;;11.30;3.97;;;;;;;;;;4992393;28;20553;-47
2020/12/25 12:01:48;;;;;;;9.10;4.05;;;;;;;;;;4992297;28;20018;-46
2020/12/25 12:04:15;;;;;;;10.05;3.65;;;;;;;;;;4974827;28;20041;-47
2020/12/25 12:06:42;;;;;;;11.32;3.95;;;;;;;;;;4992408;28;20023;-45
2020/12/25 12:09:09;;;;;;;11.55;4.38;;;;;;;;;;4992248;28;20090;-51
2020/12/25 12:11:43;;;;;;;8.15;3.88;;;;;;;;;;4992190;28;20110;-56
2020/12/25 12:14:10;;;;;;;12.55;3.42;;;;;;;;;;4992382;28;20054;-46
2020/12/25 12:16:37;;;;;;;11.50;4.85;;;;;;;;;;4992402;28;20018;-49
2020/12/25 12:19:04;;;;;;;11.90;4.85;;;;;;;;;;4992176;28;20019;-51
2020/12/25 12:21:31;;;;;;;8.32;3.83;;;;;;;;;;4992103;28;20481;-49
2020/12/25 12:23:58;;;;;;;11.55;4.55;;;;;;;;;;4992107;28;20466;-50
2020/12/25 12:26:25;;;;;;;9.73;3.85;;;;;;;;;;4992163;28;20037;-48
2020/12/25 12:28:52;;;;;;;9.85;3.83;;;;;;;;;;4992159;28;20483;-47
2020/12/25 12:31:19;;;;;;;8.90;3.70;;;;;;;;;;4992170;28;20441;-46
2020/12/25 12:33:48;;;;;;;9.38;3.65;;;;;;;;;;4992068;28;20023;-50
2020/12/25 12:36:15;;;;;;;9.80;4.00;;;;;;;;;;4995212;28;20057;-47
2020/12/25 12:38:42;;;;;;;10.50;3.53;;;;;;;;;;4995638;28;20382;-46
2020/12/25 12:41:09;;;;;;;11.98;4.40;;;;;;;;;;4995450;28;20026;-51
2020/12/25 12:43:36;;;;;;;9.10;3.80;;;;;;;;;;4995441;28;20034;-47
2020/12/25 12:46:03;;;;;;;9.65;3.60;;;;;;;;;;4995477;28;20022;-49
2020/12/25 12:48:29;;;;;;;11.07;3.72;;;;;;;;;;4995126;28;20046;-48
2020/12/25 12:50:56;;;;;;;12.52;3.65;;;;;;;;;;4995214;28;20060;-45
2020/12/25 12:53:23;;;;;;;12.90;4.32;;;;;;;;;;4995262;28;20030;-47
2020/12/25 12:55:50;;;;;;;11.15;3.88;;;;;;;;;;4995357;28;20060;-48
2020/12/25 12:58:17;;;;;;;9.77;4.05;;;;;;;;;;4995195;28;20026;-46
2020/12/25 13:00:44;;;;;;;12.50;4.07;;;;;;;;;;4995304;28;20250;-45
2020/12/25 13:03:11;;;;;;;10.75;4.00;;;;;;;;;;4995162;28;20054;-47
2020/12/25 13:05:38;;;;;;;7.60;3.35;;;;;;;;;;4977516;28;20386;-48
2020/12/25 13:08:05;;;;;;;9.35;3.83;;;;;;;;;;4995056;28;20389;-44
2020/12/25 13:10:32;;;;;;;7.18;2.95;;;;;;;;;;4994920;28;20314;-44
2020/12/25 13:12:59;;;;;;;12.27;4.22;;;;;;;;;;4994850;28;20489;-44
2020/12/25 13:15:26;;;;;;;8.48;4.45;;;;;;;;;;4994872;28;20034;-45
2020/12/25 13:17:53;;;;;;;7.22;3.85;;;;;;;;;;4994704;28;20030;-44
2020/12/25 13:20:20;;;;;;;11.48;4.10;;;;;;;;;;4994792;28;20018;-45
2020/12/25 13:22:47;;;;;;;7.45;3.30;;;;;;;;;;4994629;28;20033;-46
2020/12/25 13:25:14;;;;;;;7.85;3.55;;;;;;;;;;4994841;28;20129;-45
2020/12/25 13:27:41;;;;;;;11.98;3.95;;;;;;;;;;4977202;28;20382;-49
2020/12/25 13:30:08;;;;;;;10.00;3.50;;;;;;;;;;4994688;28;20061;-46
2020/12/25 13:32:35;;;;;;;9.30;3.75;;;;;;;;;;4994313;28;20027;-45
2020/12/25 13:35:02;;;;;;;9.13;3.85;;;;;;;;;;4994434;28;20054;-46
2020/12/25 13:37:29;;;;;;;9.35;4.15;;;;;;;;;;4994511;28;20465;-46
2020/12/25 13:39:56;;;;;;;7.32;3.05;;;;;;;;;;4994299;28;20427;-50
2020/12/25 13:42:23;;;;;;;10.02;3.33;;;;;;;;;;4976844;28;20026;-47
2020/12/25 13:44:50;;;;;;;6.78;2.88;;;;;;;;;;4994190;28;20486;-45
2020/12/25 13:47:17;;;;;;;10.80;4.07;;;;;;;;;;4993956;28;20474;-51
2020/12/25 13:49:44;;;;;;;7.40;3.97;;;;;;;;;;4994269;28;20438;-46
2020/12/25 13:52:11;;;;;;;8.32;3.75;;;;;;;;;;4994225;28;20072;-45
2020/12/25 13:54:38;;;;;;;7.80;3.00;;;;;;;;;;4994108;28;20054;-45
2020/12/25 13:57:05;;;;;;;6.13;3.13;;;;;;;;;;4994057;28;20023;-49
2020/12/25 13:59:32;;;;;;;9.57;3.35;;;;;;;;;;4994227;28;20475;-49
2020/12/25 14:01:59;;;;;;;12.77;3.20;;;;;;;;;;4993882;28;20050;-49
2020/12/25 14:04:26;;;;;;;7.88;3.20;;;;;;;;;;4993786;28;20058;-50
2020/12/25 14:06:53;;;;;;;6.78;3.22;;;;;;;;;;4993881;28;20030;-50
2020/12/25 14:09:20;;;;;;;5.72;3.15;;;;;;;;;;4993640;28;20064;-54
2020/12/25 14:11:47;;;;;;;10.32;3.50;;;;;;;;;;4993728;28;20018;-50
2020/12/25 14:14:14;;;;;;;9.18;3.53;;;;;;;;;;4993760;28;20022;-51
2020/12/25 14:16:41;;;;;;;10.02;3.33;;;;;;;;;;4992448;28;20029;-49
2020/12/25 14:19:08;;;;;;;7.93;3.30;;;;;;;;;;4993626;28;20026;-51
2020/12/25 14:21:35;;;;;;;7.53;3.20;;;;;;;;;;4993555;28;20030;-49
2020/12/25 14:24:02;;;;;;;7.13;3.55;;;;;;;;;;4993546;28;20501;-49
2020/12/25 14:26:29;;;;;;;8.85;3.35;;;;;;;;;;4993408;28;20479;-52
2020/12/25 14:28:56;;;;;;;9.45;3.15;;;;;;;;;;4993418;28;20065;-51
2020/12/25 14:31:23;;;;;;;6.85;3.50;;;;;;;;;;4993462;28;20042;-51
2020/12/25 14:33:50;;;;;;;8.77;3.78;;;;;;;;;;4993259;28;20113;-47